Time;durP1;ratioP1;P1;durP2;ratioP2;P2;SDS_P1;SDS_P2;PMS_P1;PMS_P2;Temp;Humidity;BMP_temperature;BMP_pressure;BME280_temperature;BME280_humidity;BME280_pressure;Samples;Min_cycle;Max_cycle;Signal;HPM_P1;HPM_P2
2024/01/02 00:01:10;;;;;;;3.95;1.40;;;;;;;;;;8252581;28;20049;-58
2024/01/02 00:05:10;;;;;;;7.35;1.45;;;;;;;;;;8253878;28;20030;-57
2024/01/02 00:09:10;;;;;;;5.10;1.10;;;;;;;;;;8253615;28;20033;-58
2024/01/02 00:13:10;;;;;;;6.03;1.10;;;;;;;;;;8260520;28;20032;-58
2024/01/02 00:17:11;;;;;;;5.95;1.00;;;;;;;;;;8257341;28;20144;-57
2024/01/02 00:21:11;;;;;;;1.20;0.90;;;;;;;;;;8268458;28;20842;-58
2024/01/02 00:25:11;;;;;;;3.72;1.02;;;;;;;;;;8269393;28;20033;-58
2024/01/02 00:29:13;;;;;;;2.55;0.90;;;;;;;;;;8263937;28;20033;-58
2024/01/02 00:33:14;;;;;;;3.05;1.08;;;;;;;;;;8266369;28;20033;-57
2024/01/02 00:37:14;;;;;;;4.13;1.23;;;;;;;;;;8263496;28;20033;-58
2024/01/02 00:41:14;;;;;;;1.73;1.10;;;;;;;;;;8253657;28;21037;-58
2024/01/02 00:45:14;;;;;;;3.53;1.00;;;;;;;;;;8256936;28;20017;-59
2024/01/02 00:49:14;;;;;;;1.63;0.80;;;;;;;;;;8253939;28;20033;-58
2024/01/02 00:53:15;;;;;;;2.38;1.10;;;;;;;;;;8257188;28;20029;-58
2024/01/02 00:57:15;;;;;;;2.53;0.90;;;;;;;;;;8252275;28;20034;-59
2024/01/02 01:01:17;;;;;;;3.60;1.17;;;;;;;;;;8255453;28;20145;-59
2024/01/02 01:05:17;;;;;;;3.72;1.20;;;;;;;;;;8255316;28;20073;-58
2024/01/02 01:09:17;;;;;;;1.00;0.80;;;;;;;;;;8251879;28;20037;-58
2024/01/02 01:13:17;;;;;;;0.82;0.80;;;;;;;;;;8257752;28;20040;-59
2024/01/02 01:17:18;;;;;;;0.90;0.85;;;;;;;;;;8243553;28;20043;-59
2024/01/02 01:21:19;;;;;;;1.05;0.70;;;;;;;;;;8249705;28;20904;-59
2024/01/02 01:25:19;;;;;;;1.27;0.93;;;;;;;;;;8251408;28;20108;-59
2024/01/02 01:29:20;;;;;;;1.02;0.95;;;;;;;;;;8255329;28;20135;-58
2024/01/02 01:33:20;;;;;;;1.75;1.23;;;;;;;;;;8253697;28;20029;-60
2024/01/02 01:37:20;;;;;;;1.90;0.80;;;;;;;;;;8254387;28;20032;-57
2024/01/02 01:41:21;;;;;;;2.05;0.80;;;;;;;;;;8249518;28;20026;-57
2024/01/02 01:45:21;;;;;;;0.75;0.70;;;;;;;;;;8256194;28;20128;-57
2024/01/02 01:49:21;;;;;;;1.45;0.77;;;;;;;;;;8257879;28;20101;-57
2024/01/02 01:53:21;;;;;;;1.30;0.80;;;;;;;;;;8252692;28;20025;-57
2024/01/02 01:57:22;;;;;;;0.70;0.60;;;;;;;;;;8262466;28;20030;-58
2024/01/02 02:01:22;;;;;;;0.73;0.70;;;;;;;;;;8262200;28;20289;-57
2024/01/02 02:05:25;;;;;;;0.70;0.70;;;;;;;;;;8261686;28;20349;-57
2024/01/02 02:09:25;;;;;;;0.85;0.70;;;;;;;;;;8261262;28;20018;-56
2024/01/02 02:13:26;;;;;;;1.97;0.70;;;;;;;;;;8264022;28;20029;-56
2024/01/02 02:17:29;;;;;;;1.27;0.80;;;;;;;;;;8260460;28;20041;-57
2024/01/02 02:21:31;;;;;;;1.77;0.60;;;;;;;;;;8260254;28;20172;-56
2024/01/02 02:25:31;;;;;;;1.08;0.70;;;;;;;;;;8263437;28;20598;-56
2024/01/02 02:29:31;;;;;;;0.60;0.60;;;;;;;;;;8260075;28;20907;-58
2024/01/02 02:33:31;;;;;;;0.50;0.50;;;;;;;;;;8259378;28;20280;-57
2024/01/02 02:37:32;;;;;;;0.50;0.50;;;;;;;;;;8259508;28;20589;-58
2024/01/02 02:41:32;;;;;;;0.73;0.45;;;;;;;;;;8280998;28;20407;-57
2024/01/02 02:45:34;;;;;;;0.50;0.50;;;;;;;;;;8283215;28;20029;-56
2024/01/02 02:49:34;;;;;;;0.77;0.60;;;;;;;;;;8281194;28;20030;-56
2024/01/02 02:53:34;;;;;;;1.67;0.60;;;;;;;;;;8282228;28;20032;-57
2024/01/02 02:57:34;;;;;;;0.60;0.60;;;;;;;;;;8277053;28;20488;-54
2024/01/02 03:01:35;;;;;;;0.63;0.60;;;;;;;;;;8259674;28;20037;-56
2024/01/02 03:05:35;;;;;;;1.27;0.52;;;;;;;;;;8260380;28;20030;-57
2024/01/02 03:09:37;;;;;;;0.50;0.50;;;;;;;;;;8266734;28;20029;-56
2024/01/02 03:13:37;;;;;;;0.35;0.35;;;;;;;;;;8273717;28;20021;-55
2024/01/02 03:17:37;;;;;;;0.40;0.40;;;;;;;;;;8273656;28;20064;-56
2024/01/02 03:21:37;;;;;;;1.08;0.60;;;;;;;;;;8255794;28;20490;-56
2024/01/02 03:25:38;;;;;;;0.68;0.50;;;;;;;;;;8259775;28;20060;-56
2024/01/02 03:29:38;;;;;;;0.50;0.50;;;;;;;;;;8258411;28;20122;-57
2024/01/02 03:33:38;;;;;;;1.27;0.40;;;;;;;;;;8259042;28;20044;-57
2024/01/02 03:37:38;;;;;;;0.40;0.40;;;;;;;;;;8260970;28;20087;-58
2024/01/02 03:41:38;;;;;;;0.55;0.55;;;;;;;;;;8259692;28;20053;-57
2024/01/02 03:45:39;;;;;;;0.85;0.50;;;;;;;;;;8259110;28;20033;-57
2024/01/02 03:49:39;;;;;;;0.60;0.60;;;;;;;;;;8258554;28;20030;-57
2024/01/02 03:53:39;;;;;;;2.65;0.80;;;;;;;;;;8257320;28;20064;-58
2024/01/02 03:57:39;;;;;;;0.70;0.40;;;;;;;;;;8262198;28;20171;-57
2024/01/02 04:01:43;;;;;;;0.40;0.40;;;;;;;;;;8261152;28;20143;-57
2024/01/02 04:05:43;;;;;;;0.60;0.60;;;;;;;;;;8260566;28;20238;-57
2024/01/02 04:09:43;;;;;;;2.43;0.60;;;;;;;;;;8269244;28;20053;-57
2024/01/02 04:13:44;;;;;;;1.17;0.50;;;;;;;;;;8276559;28;20303;-57
2024/01/02 04:17:44;;;;;;;1.10;0.60;;;;;;;;;;8275710;28;20042;-57
2024/01/02 04:21:44;;;;;;;0.40;0.40;;;;;;;;;;8262042;28;20030;-56
2024/01/02 04:25:44;;;;;;;0.40;0.40;;;;;;;;;;8260862;28;20801;-56
2024/01/02 04:29:44;;;;;;;0.40;0.40;;;;;;;;;;8258315;28;20678;-57
2024/01/02 04:33:45;;;;;;;0.97;0.60;;;;;;;;;;8257089;28;20049;-57
2024/01/02 04:37:45;;;;;;;0.43;0.43;;;;;;;;;;8257800;28;20021;-57
2024/01/02 04:41:45;;;;;;;0.52;0.52;;;;;;;;;;8250374;28;20022;-57
2024/01/02 04:45:45;;;;;;;0.60;0.60;;;;;;;;;;8254513;28;20068;-58
2024/01/02 04:49:45;;;;;;;0.40;0.40;;;;;;;;;;8254983;28;20025;-58
2024/01/02 04:53:46;;;;;;;0.50;0.50;;;;;;;;;;8255541;28;20032;-58
2024/01/02 04:57:46;;;;;;;0.40;0.40;;;;;;;;;;8255128;28;20052;-58
2024/01/02 05:01:46;;;;;;;0.50;0.50;;;;;;;;;;8251398;28;20044;-59
2024/01/02 05:05:46;;;;;;;0.33;0.33;;;;;;;;;;8253962;28;20284;-57
2024/01/02 05:09:47;;;;;;;0.40;0.40;;;;;;;;;;8255630;28;21373;-58
2024/01/02 05:13:47;;;;;;;3.53;0.50;;;;;;;;;;8254317;28;20023;-58
2024/01/02 05:17:47;;;;;;;0.50;0.50;;;;;;;;;;8253200;28;20037;-58
2024/01/02 05:21:47;;;;;;;0.90;0.50;;;;;;;;;;8251119;28;20824;-58
2024/01/02 05:25:48;;;;;;;0.40;0.40;;;;;;;;;;8252315;28;20140;-58
2024/01/02 05:29:48;;;;;;;0.40;0.40;;;;;;;;;;8256881;28;20025;-57
2024/01/02 05:33:48;;;;;;;0.50;0.50;;;;;;;;;;8254797;28;20279;-57
2024/01/02 05:37:48;;;;;;;0.60;0.60;;;;;;;;;;8256319;28;20029;-57
2024/01/02 05:41:48;;;;;;;0.50;0.50;;;;;;;;;;8255779;28;20048;-56
2024/01/02 05:45:49;;;;;;;1.85;0.60;;;;;;;;;;8266850;28;20041;-58
2024/01/02 05:49:49;;;;;;;0.50;0.50;;;;;;;;;;8267283;28;20037;-58
2024/01/02 05:53:49;;;;;;;0.52;0.52;;;;;;;;;;8269362;28;20033;-58
2024/01/02 05:57:49;;;;;;;0.57;0.57;;;;;;;;;;8267775;28;20025;-58
2024/01/02 06:01:52;;;;;;;0.40;0.40;;;;;;;;;;8270649;28;20045;-58
2024/01/02 06:05:52;;;;;;;0.40;0.40;;;;;;;;;;8264903;28;20025;-59
2024/01/02 06:09:52;;;;;;;0.30;0.30;;;;;;;;;;8261485;28;20032;-58
2024/01/02 06:13:52;;;;;;;0.40;0.40;;;;;;;;;;8256040;28;20083;-58
2024/01/02 06:17:53;;;;;;;1.40;0.52;;;;;;;;;;8255341;28;20044;-57
2024/01/02 06:21:53;;;;;;;0.40;0.40;;;;;;;;;;8252966;28;20025;-58
2024/01/02 06:25:53;;;;;;;0.50;0.50;;;;;;;;;;8253275;28;20014;-58
2024/01/02 06:29:54;;;;;;;0.52;0.40;;;;;;;;;;8256819;28;20110;-59
2024/01/02 06:33:54;;;;;;;0.40;0.40;;;;;;;;;;8260774;28;20041;-59
2024/01/02 06:37:54;;;;;;;1.40;0.50;;;;;;;;;;8262515;28;20843;-58
2024/01/02 06:41:55;;;;;;;0.50;0.50;;;;;;;;;;8259875;28;20036;-58
2024/01/02 06:45:55;;;;;;;0.40;0.40;;;;;;;;;;8260808;28;20302;-58
2024/01/02 06:49:55;;;;;;;0.40;0.40;;;;;;;;;;8272847;28;20516;-58
2024/01/02 06:53:56;;;;;;;0.50;0.50;;;;;;;;;;8260718;28;20052;-56
2024/01/02 06:57:56;;;;;;;0.40;0.40;;;;;;;;;;8260758;28;20029;-58
2024/01/02 07:01:56;;;;;;;0.35;0.35;;;;;;;;;;8259373;28;21257;-58
2024/01/02 07:05:56;;;;;;;0.40;0.40;;;;;;;;;;8261733;28;20133;-58
2024/01/02 07:09:56;;;;;;;0.40;0.40;;;;;;;;;;8258719;28;20547;-58
2024/01/02 07:13:57;;;;;;;0.95;0.40;;;;;;;;;;8256960;28;20312;-59
2024/01/02 07:17:58;;;;;;;1.27;0.70;;;;;;;;;;8261039;28;20061;-57
2024/01/02 07:21:58;;;;;;;0.60;0.60;;;;;;;;;;8254512;28;20037;-58
2024/01/02 07:25:58;;;;;;;0.40;0.40;;;;;;;;;;8258665;28;20087;-57
2024/01/02 07:29:58;;;;;;;0.50;0.50;;;;;;;;;;8255796;28;20091;-57
2024/01/02 07:33:59;;;;;;;0.50;0.50;;;;;;;;;;8251563;28;20172;-55
2024/01/02 07:38:00;;;;;;;0.40;0.40;;;;;;;;;;8259787;28;20026;-59
2024/01/02 07:42:00;;;;;;;0.40;0.40;;;;;;;;;;8259671;28;20025;-58
2024/01/02 07:46:00;;;;;;;0.50;0.50;;;;;;;;;;8259670;28;20272;-58
2024/01/02 07:50:04;;;;;;;0.50;0.50;;;;;;;;;;8262790;28;20037;-58
2024/01/02 07:54:04;;;;;;;0.40;0.40;;;;;;;;;;8273067;28;20079;-58
2024/01/02 07:58:04;;;;;;;0.45;0.45;;;;;;;;;;8273271;28;20068;-58
2024/01/02 08:02:04;;;;;;;0.73;0.73;;;;;;;;;;8263228;28;20033;-59
2024/01/02 08:06:05;;;;;;;0.50;0.50;;;;;;;;;;8262034;28;20040;-59
2024/01/02 08:10:06;;;;;;;0.45;0.45;;;;;;;;;;8261637;28;20041;-59
2024/01/02 08:14:06;;;;;;;0.50;0.50;;;;;;;;;;8262759;28;20115;-59
2024/01/02 08:18:07;;;;;;;0.40;0.40;;;;;;;;;;8264531;28;20045;-58
2024/01/02 08:22:08;;;;;;;0.40;0.40;;;;;;;;;;8260712;28;20405;-59
2024/01/02 08:26:15;;;;;;;0.40;0.40;;;;;;;;;;8255563;28;22585;-57
2024/01/02 08:30:15;;;;;;;0.50;0.50;;;;;;;;;;8258376;28;20021;-58
2024/01/02 08:34:15;;;;;;;0.50;0.50;;;;;;;;;;8260438;28;20044;-58
2024/01/02 08:38:16;;;;;;;0.55;0.55;;;;;;;;;;8263344;28;20033;-58
2024/01/02 08:42:16;;;;;;;0.40;0.40;;;;;;;;;;8255716;28;20037;-57
2024/01/02 08:46:16;;;;;;;0.40;0.40;;;;;;;;;;8259085;28;20091;-58
2024/01/02 08:50:17;;;;;;;0.47;0.47;;;;;;;;;;8257273;28;20017;-57
2024/01/02 08:54:17;;;;;;;0.50;0.50;;;;;;;;;;8258391;28;20399;-57
2024/01/02 08:58:18;;;;;;;0.50;0.50;;;;;;;;;;8256191;28;20132;-57
2024/01/02 09:02:18;;;;;;;0.40;0.40;;;;;;;;;;8256617;28;20470;-56
2024/01/02 09:06:19;;;;;;;0.50;0.50;;;;;;;;;;8257988;28;20056;-57
2024/01/02 09:10:21;;;;;;;0.50;0.50;;;;;;;;;;8259601;28;20040;-57
2024/01/02 09:14:21;;;;;;;0.50;0.50;;;;;;;;;;8257355;28;20028;-58
2024/01/02 09:18:21;;;;;;;0.47;0.47;;;;;;;;;;8253330;28;21060;-58
2024/01/02 09:22:23;;;;;;;0.55;0.55;;;;;;;;;;8258767;28;20612;-57
2024/01/02 09:26:24;;;;;;;0.90;0.90;;;;;;;;;;8250297;28;20025;-58
2024/01/02 09:30:24;;;;;;;0.43;0.43;;;;;;;;;;8251551;28;20047;-57
2024/01/02 09:34:24;;;;;;;0.50;0.50;;;;;;;;;;8258106;28;20083;-57
2024/01/02 09:38:25;;;;;;;0.40;0.40;;;;;;;;;;8256236;28;20021;-57
2024/01/02 09:42:48;;;;;;;0.60;0.60;;;;;;;;;;8255407;28;20021;-57
2024/01/02 09:46:58;;;;;;;0.60;0.60;;;;;;;;;;8251299;28;20042;-58
2024/01/02 09:50:58;;;;;;;0.70;0.70;;;;;;;;;;8253827;28;20329;-57
2024/01/02 09:54:58;;;;;;;0.75;0.75;;;;;;;;;;8253229;28;20059;-57
2024/01/02 09:58:58;;;;;;;0.90;0.90;;;;;;;;;;8256628;28;20541;-57
2024/01/02 10:03:05;;;;;;;2.00;0.70;;;;;;;;;;8255853;28;20072;-56
2024/01/02 10:07:15;;;;;;;0.52;0.52;;;;;;;;;;8257397;28;20272;-57
2024/01/02 10:11:34;;;;;;;0.68;0.50;;;;;;;;;;8260092;28;20827;-58
2024/01/02 10:15:45;;;;;;;0.50;0.50;;;;;;;;;;8265520;28;20579;-59
2024/01/02 10:20:03;;;;;;;0.50;0.50;;;;;;;;;;8262595;28;20052;-57
2024/01/02 10:24:15;;;;;;;0.50;0.50;;;;;;;;;;8266054;28;20428;-57
2024/01/02 10:28:18;;;;;;;0.43;0.43;;;;;;;;;;8271826;28;20017;-58
2024/01/02 10:32:27;;;;;;;0.50;0.50;;;;;;;;;;8269385;28;20753;-57
2024/01/02 10:36:28;;;;;;;1.75;0.50;;;;;;;;;;8271262;28;20028;-56
2024/01/02 10:40:29;;;;;;;0.40;0.40;;;;;;;;;;8268229;28;20033;-58
2024/01/02 10:44:39;;;;;;;0.40;0.40;;;;;;;;;;8270750;28;20031;-57
2024/01/02 10:48:45;;;;;;;0.40;0.40;;;;;;;;;;8271289;28;20037;-57
2024/01/02 10:52:51;;;;;;;0.40;0.40;;;;;;;;;;8265615;28;20044;-57
2024/01/02 10:56:51;;;;;;;0.47;0.47;;;;;;;;;;8267903;28;20029;-57
2024/01/02 11:01:08;;;;;;;0.40;0.40;;;;;;;;;;8270545;28;20045;-57
2024/01/02 11:05:12;;;;;;;0.40;0.40;;;;;;;;;;8267739;28;20033;-57
2024/01/02 11:09:20;;;;;;;0.40;0.40;;;;;;;;;;8268827;28;20034;-58
2024/01/02 11:13:20;;;;;;;0.40;0.40;;;;;;;;;;8267194;28;20485;-57
2024/01/02 11:17:20;;;;;;;0.50;0.50;;;;;;;;;;8268994;28;20067;-57
2024/01/02 11:21:24;;;;;;;1.08;0.50;;;;;;;;;;8261973;28;20031;-58
2024/01/02 11:25:27;;;;;;;0.30;0.30;;;;;;;;;;8251103;28;20064;-59
2024/01/02 11:29:30;;;;;;;0.40;0.40;;;;;;;;;;8256589;28;21148;-58
2024/01/02 11:33:40;;;;;;;0.40;0.40;;;;;;;;;;8271954;28;20038;-58
2024/01/02 11:37:45;;;;;;;1.65;0.45;;;;;;;;;;8268823;28;20025;-58
2024/01/02 11:41:45;;;;;;;0.47;0.43;;;;;;;;;;8265317;28;20056;-58
2024/01/02 11:45:52;;;;;;;0.30;0.30;;;;;;;;;;8268090;28;20041;-58
2024/01/02 11:49:53;;;;;;;0.40;0.40;;;;;;;;;;8264349;28;20826;-58
2024/01/02 11:54:00;;;;;;;0.43;0.43;;;;;;;;;;8264541;28;20029;-57
2024/01/02 11:58:07;;;;;;;1.02;0.40;;;;;;;;;;8264404;28;20478;-57
2024/01/02 12:02:19;;;;;;;0.40;0.40;;;;;;;;;;8266526;28;20182;-56
2024/01/02 12:06:43;;;;;;;0.50;0.50;;;;;;;;;;8271079;28;20021;-56
2024/01/02 12:10:48;;;;;;;1.00;0.60;;;;;;;;;;8265561;28;20025;-57
2024/01/02 12:14:48;;;;;;;0.40;0.40;;;;;;;;;;8269603;28;20276;-57
2024/01/02 12:18:49;;;;;;;0.40;0.40;;;;;;;;;;8270583;28;20508;-59
2024/01/02 12:22:49;;;;;;;0.40;0.40;;;;;;;;;;8257646;28;20098;-57
2024/01/02 12:26:50;;;;;;;0.40;0.40;;;;;;;;;;8252599;28;20070;-58
2024/01/02 12:31:09;;;;;;;0.50;0.50;;;;;;;;;;8270049;28;20429;-59
2024/01/02 12:35:13;;;;;;;0.40;0.40;;;;;;;;;;8254758;28;20595;-58
2024/01/02 12:39:16;;;;;;;0.50;0.50;;;;;;;;;;8255050;28;20025;-58
2024/01/02 12:43:20;;;;;;;0.40;0.40;;;;;;;;;;8256215;28;20032;-57
2024/01/02 12:47:21;;;;;;;0.50;0.50;;;;;;;;;;8254251;28;20033;-58
2024/01/02 12:51:24;;;;;;;0.40;0.40;;;;;;;;;;8255817;28;20017;-57
2024/01/02 12:55:26;;;;;;;1.00;0.57;;;;;;;;;;8254629;28;20025;-58
2024/01/02 12:59:28;;;;;;;0.40;0.40;;;;;;;;;;8252430;28;20745;-56
2024/01/02 13:03:28;;;;;;;0.40;0.40;;;;;;;;;;8251588;28;20794;-57
2024/01/02 13:07:30;;;;;;;0.40;0.40;;;;;;;;;;8254073;28;20029;-57
2024/01/02 13:11:31;;;;;;;0.60;0.60;;;;;;;;;;8253977;28;20059;-57
2024/01/02 13:15:31;;;;;;;0.45;0.43;;;;;;;;;;8253984;28;20041;-58
2024/01/02 13:19:31;;;;;;;0.40;0.40;;;;;;;;;;8254422;28;20140;-58
2024/01/02 13:23:31;;;;;;;0.40;0.40;;;;;;;;;;8255528;28;20612;-56
2024/01/02 13:27:31;;;;;;;0.40;0.40;;;;;;;;;;8251077;28;20856;-57
2024/01/02 13:31:34;;;;;;;0.40;0.40;;;;;;;;;;8254386;28;20029;-58
2024/01/02 13:35:34;;;;;;;1.77;0.43;;;;;;;;;;8257774;28;20521;-58
2024/01/02 13:39:38;;;;;;;0.40;0.40;;;;;;;;;;8254766;28;20077;-57
2024/01/02 13:43:39;;;;;;;0.50;0.50;;;;;;;;;;8255875;28;20017;-58
2024/01/02 13:47:40;;;;;;;0.32;0.32;;;;;;;;;;8254446;28;20034;-58
2024/01/02 13:51:44;;;;;;;0.50;0.50;;;;;;;;;;8254179;28;20471;-57
2024/01/02 13:55:44;;;;;;;0.47;0.47;;;;;;;;;;8253232;28;20068;-57
2024/01/02 13:59:46;;;;;;;0.32;0.32;;;;;;;;;;8252325;28;20048;-57
2024/01/02 14:03:46;;;;;;;0.40;0.40;;;;;;;;;;8255192;28;20111;-58
2024/01/02 14:07:47;;;;;;;0.40;0.40;;;;;;;;;;8255432;28;20033;-57
2024/01/02 14:12:04;;;;;;;0.50;0.50;;;;;;;;;;8253269;28;20021;-58
2024/01/02 14:16:06;;;;;;;0.50;0.50;;;;;;;;;;8255221;28;20167;-58
2024/01/02 14:20:07;;;;;;;0.50;0.50;;;;;;;;;;8254405;28;20033;-58
2024/01/02 14:24:12;;;;;;;0.40;0.40;;;;;;;;;;8263869;28;20037;-57
2024/01/02 14:28:22;;;;;;;0.40;0.40;;;;;;;;;;8261869;28;20107;-56
2024/01/02 14:32:43;;;;;;;0.40;0.40;;;;;;;;;;8263193;28;20746;-57
2024/01/02 14:36:56;;;;;;;0.40;0.40;;;;;;;;;;8262210;28;20029;-57
2024/01/02 14:41:00;;;;;;;0.50;0.50;;;;;;;;;;8258929;28;20698;-58
2024/01/02 14:45:00;;;;;;;0.32;0.32;;;;;;;;;;8254618;28;20460;-58
2024/01/02 14:49:03;;;;;;;0.40;0.40;;;;;;;;;;8253140;28;20076;-57
2024/01/02 14:53:06;;;;;;;0.40;0.40;;;;;;;;;;8253699;28;20017;-58
2024/01/02 14:57:25;;;;;;;0.40;0.40;;;;;;;;;;8260274;28;21392;-58
2024/01/02 15:01:31;;;;;;;0.40;0.40;;;;;;;;;;8260441;28;20045;-57
2024/01/02 15:05:33;;;;;;;0.50;0.50;;;;;;;;;;8256217;28;20148;-57
2024/01/02 15:09:41;;;;;;;0.40;0.40;;;;;;;;;;8255606;28;20705;-58
2024/01/02 15:14:03;;;;;;;0.40;0.40;;;;;;;;;;8259337;28;20654;-57
2024/01/02 15:18:23;;;;;;;0.40;0.40;;;;;;;;;;8256548;28;20030;-57
2024/01/02 15:22:36;;;;;;;0.38;0.38;;;;;;;;;;8258230;28;20022;-57
2024/01/02 15:26:47;;;;;;;0.30;0.30;;;;;;;;;;8256338;28;20150;-60
2024/01/02 15:30:49;;;;;;;0.50;0.50;;;;;;;;;;8258254;28;20739;-58
2024/01/02 15:35:09;;;;;;;0.40;0.40;;;;;;;;;;8253656;28;20103;-59
2024/01/02 15:39:13;;;;;;;0.47;0.47;;;;;;;;;;8254551;28;22377;-57
2024/01/02 15:43:13;;;;;;;;;;;;;;;;;;8255096;28;20084;-57
2024/01/02 15:47:25;;;;;;;0.43;0.43;;;;;;;;;;8249198;28;19917;-56
2024/01/02 15:51:26;;;;;;;0.60;0.60;;;;;;;;;;8252760;28;20401;-58
2024/01/02 15:55:31;;;;;;;0.82;0.73;;;;;;;;;;8256887;28;20021;-57
2024/01/02 15:59:36;;;;;;;0.70;0.70;;;;;;;;;;8255073;28;20580;-58
2024/01/02 16:03:55;;;;;;;0.50;0.50;;;;;;;;;;8256552;28;20026;-57
2024/01/02 16:08:02;;;;;;;0.40;0.40;;;;;;;;;;8257503;28;20021;-59
2024/01/02 16:12:21;;;;;;;0.40;0.40;;;;;;;;;;8252196;28;20078;-59
2024/01/02 16:16:27;;;;;;;0.40;0.40;;;;;;;;;;8256552;28;20053;-59
2024/01/02 16:20:27;;;;;;;0.40;0.40;;;;;;;;;;8257510;28;20096;-59
2024/01/02 16:24:39;;;;;;;0.40;0.40;;;;;;;;;;8260222;28;20041;-59
2024/01/02 16:28:49;;;;;;;0.60;0.40;;;;;;;;;;8252773;28;20756;-59
2024/01/02 16:33:02;;;;;;;0.40;0.40;;;;;;;;;;8254473;28;20092;-60
2024/01/02 16:37:20;;;;;;;0.50;0.50;;;;;;;;;;8249512;28;20136;-59
2024/01/02 16:41:22;;;;;;;0.50;0.50;;;;;;;;;;8255446;28;20128;-57
2024/01/02 16:45:23;;;;;;;0.40;0.40;;;;;;;;;;8256633;28;20114;-57
2024/01/02 16:49:23;;;;;;;0.57;0.50;;;;;;;;;;8257359;28;20021;-58
2024/01/02 16:53:24;;;;;;;0.57;0.57;;;;;;;;;;8258301;28;20021;-60
2024/01/02 16:57:27;;;;;;;1.55;0.47;;;;;;;;;;8254535;28;20108;-57
2024/01/02 17:01:27;;;;;;;0.40;0.40;;;;;;;;;;8252627;28;20155;-57
2024/01/02 17:05:34;;;;;;;0.50;0.50;;;;;;;;;;8249200;28;20108;-58
2024/01/02 17:09:34;;;;;;;0.40;0.40;;;;;;;;;;8250538;28;20065;-56
2024/01/02 17:13:36;;;;;;;0.40;0.40;;;;;;;;;;8254504;28;20107;-56
2024/01/02 17:17:37;;;;;;;1.27;0.40;;;;;;;;;;8256307;28;20105;-57
2024/01/02 17:21:37;;;;;;;1.02;0.52;;;;;;;;;;8259623;28;20060;-58
2024/01/02 17:25:38;;;;;;;0.50;0.50;;;;;;;;;;8254545;28;20566;-58
2024/01/02 17:29:38;;;;;;;0.40;0.40;;;;;;;;;;8249521;28;20064;-59
2024/01/02 17:33:41;;;;;;;0.40;0.40;;;;;;;;;;8252641;28;20039;-59
2024/01/02 17:37:42;;;;;;;0.40;0.40;;;;;;;;;;8250427;28;20032;-58
2024/01/02 17:41:42;;;;;;;0.50;0.50;;;;;;;;;;8249975;28;20464;-58
2024/01/02 17:45:45;;;;;;;0.40;0.40;;;;;;;;;;8249696;28;20123;-59
2024/01/02 17:49:46;;;;;;;0.40;0.40;;;;;;;;;;8250334;28;20029;-59
2024/01/02 17:53:49;;;;;;;0.45;0.45;;;;;;;;;;8249944;28;20280;-57
2024/01/02 17:57:54;;;;;;;0.47;0.47;;;;;;;;;;8247800;28;20037;-57
2024/01/02 18:01:54;;;;;;;0.68;0.68;;;;;;;;;;8249958;28;20045;-57
2024/01/02 18:06:20;;;;;;;0.65;0.65;;;;;;;;;;8251159;28;20577;-57
2024/01/02 18:10:23;;;;;;;0.40;0.40;;;;;;;;;;8246268;28;20138;-57
2024/01/02 18:14:29;;;;;;;0.50;0.50;;;;;;;;;;8264049;28;20014;-57
2024/01/02 18:18:47;;;;;;;0.70;0.70;;;;;;;;;;8267102;28;20071;-58
2024/01/02 18:22:49;;;;;;;0.88;0.70;;;;;;;;;;8258374;28;20448;-58
2024/01/02 18:27:15;;;;;;;0.50;0.50;;;;;;;;;;8250817;28;20025;-57
2024/01/02 18:31:29;;;;;;;0.40;0.40;;;;;;;;;;8237335;28;20036;-58
2024/01/02 18:35:37;;;;;;;1.15;0.70;;;;;;;;;;8253960;28;20033;-58
2024/01/02 18:39:37;;;;;;;0.55;0.50;;;;;;;;;;8250181;28;20506;-57
2024/01/02 18:43:40;;;;;;;0.63;0.60;;;;;;;;;;8259734;28;20032;-56
2024/01/02 18:47:44;;;;;;;0.60;0.60;;;;;;;;;;8256714;28;28560;-57
2024/01/02 18:51:51;;;;;;;0.60;0.60;;;;;;;;;;8257502;28;20029;-57
2024/01/02 18:55:51;;;;;;;0.50;0.50;;;;;;;;;;8255605;28;20079;-56
2024/01/02 18:59:51;;;;;;;0.50;0.50;;;;;;;;;;8255005;28;20037;-58
2024/01/02 19:04:04;;;;;;;0.60;0.60;;;;;;;;;;8257850;28;20663;-59
2024/01/02 19:08:12;;;;;;;0.73;0.50;;;;;;;;;;8256780;28;20276;-60
2024/01/02 19:12:12;;;;;;;0.50;0.50;;;;;;;;;;8258788;28;20502;-59
2024/01/02 19:16:13;;;;;;;0.60;0.60;;;;;;;;;;8255979;28;20440;-58
2024/01/02 19:20:13;;;;;;;0.57;0.57;;;;;;;;;;8252986;28;20406;-59
2024/01/02 19:24:14;;;;;;;0.40;0.40;;;;;;;;;;8256979;28;20033;-57
2024/01/02 19:28:15;;;;;;;0.40;0.40;;;;;;;;;;8249137;28;20025;-57
2024/01/02 19:32:18;;;;;;;0.50;0.50;;;;;;;;;;8249176;28;20037;-57
2024/01/02 19:36:18;;;;;;;0.50;0.50;;;;;;;;;;8265621;28;20029;-57
2024/01/02 19:40:20;;;;;;;0.40;0.40;;;;;;;;;;8264289;28;20017;-57
2024/01/02 19:44:23;;;;;;;0.52;0.50;;;;;;;;;;8257651;28;20148;-56
2024/01/02 19:48:23;;;;;;;0.50;0.50;;;;;;;;;;8250454;28;20859;-57
2024/01/02 19:52:23;;;;;;;0.40;0.40;;;;;;;;;;8256423;28;20029;-58
2024/01/02 19:56:23;;;;;;;0.60;0.60;;;;;;;;;;8249694;28;20036;-57
2024/01/02 20:00:24;;;;;;;2.15;0.40;;;;;;;;;;8252606;28;20276;-57
2024/01/02 20:04:30;;;;;;;1.00;0.60;;;;;;;;;;8253572;28;20021;-57
2024/01/02 20:08:40;;;;;;;0.43;0.43;;;;;;;;;;8255216;28;20283;-57
2024/01/02 20:12:52;;;;;;;0.50;0.50;;;;;;;;;;8250553;28;20030;-56
2024/01/02 20:16:53;;;;;;;0.40;0.40;;;;;;;;;;8265839;28;20594;-57
2024/01/02 20:20:58;;;;;;;2.70;0.60;;;;;;;;;;8262567;28;20345;-57
2024/01/02 20:24:59;;;;;;;0.45;0.45;;;;;;;;;;8262667;28;20056;-57
2024/01/02 20:29:01;;;;;;;0.40;0.40;;;;;;;;;;8263485;28;20025;-56
2024/01/02 20:33:04;;;;;;;0.50;0.50;;;;;;;;;;8255786;28;20731;-57
2024/01/02 20:37:09;;;;;;;0.50;0.50;;;;;;;;;;8268814;28;20478;-57
2024/01/02 20:41:25;;;;;;;0.50;0.50;;;;;;;;;;8263047;28;20034;-58
2024/01/02 20:45:26;;;;;;;0.55;0.55;;;;;;;;;;8254954;28;20053;-57
2024/01/02 20:49:29;;;;;;;0.40;0.40;;;;;;;;;;8255282;28;20021;-59
2024/01/02 20:53:33;;;;;;;0.50;0.50;;;;;;;;;;8254043;28;20114;-57
2024/01/02 20:57:34;;;;;;;0.60;0.60;;;;;;;;;;8251713;28;20029;-57
2024/01/02 21:01:35;;;;;;;0.50;0.50;;;;;;;;;;8248470;28;20063;-57
2024/01/02 21:05:47;;;;;;;0.60;0.60;;;;;;;;;;8252103;28;20029;-58
2024/01/02 21:09:53;;;;;;;1.10;0.70;;;;;;;;;;8245658;28;20071;-58
2024/01/02 21:13:53;;;;;;;0.50;0.50;;;;;;;;;;8249244;28;20064;-58
2024/01/02 21:17:54;;;;;;;0.60;0.60;;;;;;;;;;8251747;28;20045;-56
2024/01/02 21:21:55;;;;;;;0.60;0.60;;;;;;;;;;8251688;28;20046;-58
2024/01/02 21:25:55;;;;;;;0.50;0.50;;;;;;;;;;8259833;28;20578;-58
2024/01/02 21:29:56;;;;;;;0.80;0.65;;;;;;;;;;8262339;28;20045;-56
2024/01/02 21:33:56;;;;;;;0.60;0.60;;;;;;;;;;8262109;28;20034;-57
2024/01/02 21:37:56;;;;;;;0.87;0.70;;;;;;;;;;8265995;28;20333;-58
2024/01/02 21:41:56;;;;;;;0.85;0.70;;;;;;;;;;8262699;28;20281;-63
2024/01/02 21:45:56;;;;;;;0.65;0.65;;;;;;;;;;8262107;28;20626;-57
2024/01/02 21:49:57;;;;;;;0.73;0.70;;;;;;;;;;8262799;28;20227;-57
2024/01/02 21:54:00;;;;;;;1.05;0.68;;;;;;;;;;8257609;28;20029;-59
2024/01/02 21:58:05;;;;;;;0.60;0.60;;;;;;;;;;8255916;28;20580;-59
2024/01/02 22:02:31;;;;;;;0.70;0.70;;;;;;;;;;8249547;28;20136;-58
2024/01/02 22:06:39;;;;;;;1.83;0.70;;;;;;;;;;8241488;28;20097;-58
2024/01/02 22:10:43;;;;;;;0.82;0.70;;;;;;;;;;8255828;28;20028;-56
2024/01/02 22:14:43;;;;;;;0.70;0.60;;;;;;;;;;8257286;28;20029;-56
2024/01/02 22:18:44;;;;;;;6.10;0.70;;;;;;;;;;8259107;28;20049;-57
2024/01/02 22:22:45;;;;;;;0.73;0.65;;;;;;;;;;8258327;28;20030;-58
2024/01/02 22:36:01;;;;;;;1.40;0.85;;;;;;;;;;8260548;28;20036;-58
2024/01/02 22:40:02;;;;;;;1.27;0.80;;;;;;;;;;8271087;28;20037;-58
2024/01/02 22:44:02;;;;;;;1.15;0.80;;;;;;;;;;8269155;28;20755;-57
2024/01/02 22:48:03;;;;;;;2.00;0.80;;;;;;;;;;8268630;28;20033;-58
2024/01/02 22:52:04;;;;;;;0.60;0.60;;;;;;;;;;8272070;28;20278;-58
2024/01/02 22:56:04;;;;;;;0.90;0.80;;;;;;;;;;8269618;28;20026;-58
2024/01/02 23:00:15;;;;;;;1.73;0.90;;;;;;;;;;8268319;28;20032;-59
2024/01/02 23:04:15;;;;;;;2.00;0.90;;;;;;;;;;8259888;28;20098;-58
2024/01/02 23:08:17;;;;;;;2.28;0.95;;;;;;;;;;8257410;28;20021;-57
2024/01/02 23:12:19;;;;;;;1.40;1.08;;;;;;;;;;8256065;28;20030;-58
2024/01/02 23:16:19;;;;;;;1.73;1.00;;;;;;;;;;8254215;28;20693;-57
2024/01/02 23:20:19;;;;;;;0.70;0.70;;;;;;;;;;8254956;28;20017;-58
2024/01/02 23:24:19;;;;;;;1.70;1.02;;;;;;;;;;8258652;28;20022;-59
2024/01/02 23:28:38;;;;;;;1.50;0.88;;;;;;;;;;8258445;28;20026;-59
2024/01/02 23:32:38;;;;;;;1.30;1.00;;;;;;;;;;8252179;28;20041;-59
2024/01/02 23:36:40;;;;;;;2.13;0.90;;;;;;;;;;8259508;28;20082;-58
2024/01/02 23:40:40;;;;;;;4.43;0.90;;;;;;;;;;8258206;28;20030;-59
2024/01/02 23:44:40;;;;;;;3.77;1.10;;;;;;;;;;8259723;28;20014;-56
2024/01/02 23:48:40;;;;;;;1.25;0.80;;;;;;;;;;8257806;28;20273;-58
2024/01/02 23:52:40;;;;;;;1.40;0.87;;;;;;;;;;8258577;28;20029;-58
2024/01/02 23:56:42;;;;;;;1.00;0.80;;;;;;;;;;8256671;28;20021;-57
